sensor_id;sensor_type;location;lat;lon;timestamp;temperature;humidity
19930;DHT22;10127;47.780;9.606;2024-03-22T00:02:08;8.60;99.90
19930;DHT22;10127;47.780;9.606;2024-03-22T00:04:37;8.60;99.90
19930;DHT22;10127;47.780;9.606;2024-03-22T00:07:03;8.60;99.90
19930;DHT22;10127;47.780;9.606;2024-03-22T00:09:28;8.50;99.90
19930;DHT22;10127;47.780;9.606;2024-03-22T00:11:54;8.50;99.90
19930;DHT22;10127;47.780;9.606;2024-03-22T00:14:19;8.50;99.90
19930;DHT22;10127;47.780;9.606;2024-03-22T00:16:46;8.50;99.90
19930;DHT22;10127;47.780;9.606;2024-03-22T00:19:11;8.50;99.90
19930;DHT22;10127;47.780;9.606;2024-03-22T00:21:37;8.50;99.90
19930;DHT22;10127;47.780;9.606;2024-03-22T00:24:02;8.60;99.90
19930;DHT22;10127;47.780;9.606;2024-03-22T00:26:28;8.60;99.90
19930;DHT22;10127;47.780;9.606;2024-03-22T00:28:54;8.50;99.90
19930;DHT22;10127;47.780;9.606;2024-03-22T00:31:20;8.40;99.90
19930;DHT22;10127;47.780;9.606;2024-03-22T00:33:45;8.40;99.90
19930;DHT22;10127;47.780;9.606;2024-03-22T00:36:11;8.40;99.90
19930;DHT22;10127;47.780;9.606;2024-03-22T00:38:36;8.40;99.90
19930;DHT22;10127;47.780;9.606;2024-03-22T00:41:02;8.40;99.90
19930;DHT22;10127;47.780;9.606;2024-03-22T00:43:27;8.30;99.90
19930;DHT22;10127;47.780;9.606;2024-03-22T00:45:53;8.30;99.90
19930;DHT22;10127;47.780;9.606;2024-03-22T00:48:18;8.30;99.90
19930;DHT22;10127;47.780;9.606;2024-03-22T00:50:44;8.20;99.90
19930;DHT22;10127;47.780;9.606;2024-03-22T00:53:10;8.20;99.90
19930;DHT22;10127;47.780;9.606;2024-03-22T00:55:36;8.20;99.90
19930;DHT22;10127;47.780;9.606;2024-03-22T00:58:02;8.20;99.90
19930;DHT22;10127;47.780;9.606;2024-03-22T01:00:27;8.00;99.90
19930;DHT22;10127;47.780;9.606;2024-03-22T01:02:53;8.00;99.90
19930;DHT22;10127;47.780;9.606;2024-03-22T01:05:19;8.00;99.90
19930;DHT22;10127;47.780;9.606;2024-03-22T01:07:44;7.90;99.90
19930;DHT22;10127;47.780;9.606;2024-03-22T01:10:11;8.00;99.90
19930;DHT22;10127;47.780;9.606;2024-03-22T01:12:37;7.90;99.90
19930;DHT22;10127;47.780;9.606;2024-03-22T01:15:03;7.80;99.90
19930;DHT22;10127;47.780;9.606;2024-03-22T01:17:29;7.80;99.90
19930;DHT22;10127;47.780;9.606;2024-03-22T01:19:55;7.70;99.90
19930;DHT22;10127;47.780;9.606;2024-03-22T01:22:20;7.60;99.90
19930;DHT22;10127;47.780;9.606;2024-03-22T01:24:46;7.60;99.90
19930;DHT22;10127;47.780;9.606;2024-03-22T01:27:12;7.60;99.90
19930;DHT22;10127;47.780;9.606;2024-03-22T01:29:37;7.70;99.90
19930;DHT22;10127;47.780;9.606;2024-03-22T01:32:03;7.70;99.90
19930;DHT22;10127;47.780;9.606;2024-03-22T01:34:29;7.60;99.90
19930;DHT22;10127;47.780;9.606;2024-03-22T01:36:55;7.60;99.90
19930;DHT22;10127;47.780;9.606;2024-03-22T01:39:27;7.50;99.90
19930;DHT22;10127;47.780;9.606;2024-03-22T01:41:52;7.40;99.90
19930;DHT22;10127;47.780;9.606;2024-03-22T01:44:18;7.20;99.90
19930;DHT22;10127;47.780;9.606;2024-03-22T01:46:44;7.30;99.90
19930;DHT22;10127;47.780;9.606;2024-03-22T01:49:12;7.40;99.90
19930;DHT22;10127;47.780;9.606;2024-03-22T01:51:45;7.20;99.90
19930;DHT22;10127;47.780;9.606;2024-03-22T01:54:10;7.00;99.90
19930;DHT22;10127;47.780;9.606;2024-03-22T01:56:43;6.90;99.90
19930;DHT22;10127;47.780;9.606;2024-03-22T01:59:09;6.90;99.90
19930;DHT22;10127;47.780;9.606;2024-03-22T02:01:35;6.90;99.90
19930;DHT22;10127;47.780;9.606;2024-03-22T02:04:01;6.80;99.90
19930;DHT22;10127;47.780;9.606;2024-03-22T02:06:27;6.90;99.90
19930;DHT22;10127;47.780;9.606;2024-03-22T02:09:00;6.90;99.90
19930;DHT22;10127;47.780;9.606;2024-03-22T02:11:36;7.00;99.90
19930;DHT22;10127;47.780;9.606;2024-03-22T02:14:03;7.00;99.90
19930;DHT22;10127;47.780;9.606;2024-03-22T02:16:29;7.00;99.90
19930;DHT22;10127;47.780;9.606;2024-03-22T02:18:55;7.00;99.90
19930;DHT22;10127;47.780;9.606;2024-03-22T02:21:21;6.90;99.90
19930;DHT22;10127;47.780;9.606;2024-03-22T02:23:46;6.90;99.90
19930;DHT22;10127;47.780;9.606;2024-03-22T02:26:12;6.80;99.90
19930;DHT22;10127;47.780;9.606;2024-03-22T02:28:37;6.70;99.90
19930;DHT22;10127;47.780;9.606;2024-03-22T02:31:03;6.70;99.90
19930;DHT22;10127;47.780;9.606;2024-03-22T02:33:29;6.70;99.90
19930;DHT22;10127;47.780;9.606;2024-03-22T02:35:55;6.80;99.90
19930;DHT22;10127;47.780;9.606;2024-03-22T02:38:21;7.00;99.90
19930;DHT22;10127;47.780;9.606;2024-03-22T02:40:48;7.00;99.90
19930;DHT22;10127;47.780;9.606;2024-03-22T02:43:14;6.90;99.90
19930;DHT22;10127;47.780;9.606;2024-03-22T02:45:40;6.70;99.90
19930;DHT22;10127;47.780;9.606;2024-03-22T02:48:06;6.70;99.90
19930;DHT22;10127;47.780;9.606;2024-03-22T02:50:36;6.70;99.90
19930;DHT22;10127;47.780;9.606;2024-03-22T02:53:02;6.70;99.90
19930;DHT22;10127;47.780;9.606;2024-03-22T02:55:28;6.60;99.90
19930;DHT22;10127;47.780;9.606;2024-03-22T02:57:53;6.60;99.90
19930;DHT22;10127;47.780;9.606;2024-03-22T03:00:19;6.60;99.90
19930;DHT22;10127;47.780;9.606;2024-03-22T03:02:48;6.60;99.90
19930;DHT22;10127;47.780;9.606;2024-03-22T03:05:13;6.70;99.90
19930;DHT22;10127;47.780;9.606;2024-03-22T03:07:39;6.60;99.90
19930;DHT22;10127;47.780;9.606;2024-03-22T03:10:06;6.60;99.90
19930;DHT22;10127;47.780;9.606;2024-03-22T03:12:32;6.50;99.90
19930;DHT22;10127;47.780;9.606;2024-03-22T03:14:58;6.50;99.90
19930;DHT22;10127;47.780;9.606;2024-03-22T03:17:23;6.40;99.90
19930;DHT22;10127;47.780;9.606;2024-03-22T03:19:49;6.50;99.90
19930;DHT22;10127;47.780;9.606;2024-03-22T03:22:14;6.40;99.90
19930;DHT22;10127;47.780;9.606;2024-03-22T03:24:40;6.30;99.90
19930;DHT22;10127;47.780;9.606;2024-03-22T03:27:06;6.30;99.90
19930;DHT22;10127;47.780;9.606;2024-03-22T03:29:31;6.40;99.90
19930;DHT22;10127;47.780;9.606;2024-03-22T03:31:57;6.50;99.90
19930;DHT22;10127;47.780;9.606;2024-03-22T03:34:23;6.70;99.90
19930;DHT22;10127;47.780;9.606;2024-03-22T03:36:48;6.60;99.90
19930;DHT22;10127;47.780;9.606;2024-03-22T03:39:14;6.50;99.90
19930;DHT22;10127;47.780;9.606;2024-03-22T03:41:39;6.50;99.90
19930;DHT22;10127;47.780;9.606;2024-03-22T03:44:05;6.50;99.90
19930;DHT22;10127;47.780;9.606;2024-03-22T03:46:31;6.30;99.90
19930;DHT22;10127;47.780;9.606;2024-03-22T03:48:57;6.30;99.90
19930;DHT22;10127;47.780;9.606;2024-03-22T03:51:22;6.30;99.90
19930;DHT22;10127;47.780;9.606;2024-03-22T03:53:48;6.20;99.90
19930;DHT22;10127;47.780;9.606;2024-03-22T03:56:13;6.30;99.90
19930;DHT22;10127;47.780;9.606;2024-03-22T03:58:39;6.10;99.90
19930;DHT22;10127;47.780;9.606;2024-03-22T04:01:08;6.20;99.90
19930;DHT22;10127;47.780;9.606;2024-03-22T04:03:34;6.20;99.90
19930;DHT22;10127;47.780;9.606;2024-03-22T04:06:01;6.20;99.90
19930;DHT22;10127;47.780;9.606;2024-03-22T04:08:27;6.10;99.90
19930;DHT22;10127;47.780;9.606;2024-03-22T04:10:53;6.10;99.90
19930;DHT22;10127;47.780;9.606;2024-03-22T04:13:21;6.00;99.90
19930;DHT22;10127;47.780;9.606;2024-03-22T04:15:47;5.90;99.90
19930;DHT22;10127;47.780;9.606;2024-03-22T04:18:12;5.90;99.90
19930;DHT22;10127;47.780;9.606;2024-03-22T04:20:38;6.00;99.90
19930;DHT22;10127;47.780;9.606;2024-03-22T04:23:03;6.10;99.90
19930;DHT22;10127;47.780;9.606;2024-03-22T04:25:30;6.20;99.90
19930;DHT22;10127;47.780;9.606;2024-03-22T04:27:55;6.10;99.90
19930;DHT22;10127;47.780;9.606;2024-03-22T04:30:21;6.20;99.90
19930;DHT22;10127;47.780;9.606;2024-03-22T04:32:47;6.10;99.90
19930;DHT22;10127;47.780;9.606;2024-03-22T04:35:12;6.00;99.90
19930;DHT22;10127;47.780;9.606;2024-03-22T04:37:38;5.90;99.90
19930;DHT22;10127;47.780;9.606;2024-03-22T04:40:04;5.90;99.90
19930;DHT22;10127;47.780;9.606;2024-03-22T04:42:29;5.90;99.90
19930;DHT22;10127;47.780;9.606;2024-03-22T04:44:55;5.90;99.90
19930;DHT22;10127;47.780;9.606;2024-03-22T04:47:21;5.90;99.90
19930;DHT22;10127;47.780;9.606;2024-03-22T04:49:46;5.80;99.90
19930;DHT22;10127;47.780;9.606;2024-03-22T04:52:12;5.80;99.90
19930;DHT22;10127;47.780;9.606;2024-03-22T04:54:37;5.80;99.90
19930;DHT22;10127;47.780;9.606;2024-03-22T04:57:03;5.70;99.90
19930;DHT22;10127;47.780;9.606;2024-03-22T04:59:29;5.80;99.90
19930;DHT22;10127;47.780;9.606;2024-03-22T05:01:54;6.00;99.90
19930;DHT22;10127;47.780;9.606;2024-03-22T05:04:20;6.10;99.90
19930;DHT22;10127;47.780;9.606;2024-03-22T05:06:45;6.10;99.90
19930;DHT22;10127;47.780;9.606;2024-03-22T05:09:11;6.40;99.90
19930;DHT22;10127;47.780;9.606;2024-03-22T05:11:36;6.50;99.90
19930;DHT22;10127;47.780;9.606;2024-03-22T05:14:02;6.50;99.90
19930;DHT22;10127;47.780;9.606;2024-03-22T05:16:28;6.30;99.90
19930;DHT22;10127;47.780;9.606;2024-03-22T05:18:54;6.20;99.90
19930;DHT22;10127;47.780;9.606;2024-03-22T05:21:19;6.50;99.90
19930;DHT22;10127;47.780;9.606;2024-03-22T05:23:45;6.50;99.90
19930;DHT22;10127;47.780;9.606;2024-03-22T05:26:11;6.30;99.90
19930;DHT22;10127;47.780;9.606;2024-03-22T05:28:36;6.40;99.90
19930;DHT22;10127;47.780;9.606;2024-03-22T05:31:02;6.40;99.90
19930;DHT22;10127;47.780;9.606;2024-03-22T05:33:28;6.40;99.90
19930;DHT22;10127;47.780;9.606;2024-03-22T05:35:54;6.40;99.90
19930;DHT22;10127;47.780;9.606;2024-03-22T05:38:19;6.10;99.90
19930;DHT22;10127;47.780;9.606;2024-03-22T05:40:45;6.00;99.90
19930;DHT22;10127;47.780;9.606;2024-03-22T05:43:13;5.90;99.90
19930;DHT22;10127;47.780;9.606;2024-03-22T05:45:39;6.10;99.90
19930;DHT22;10127;47.780;9.606;2024-03-22T05:48:05;6.20;99.90
19930;DHT22;10127;47.780;9.606;2024-03-22T05:50:31;6.60;99.90
19930;DHT22;10127;47.780;9.606;2024-03-22T05:52:56;6.90;99.90
19930;DHT22;10127;47.780;9.606;2024-03-22T05:55:22;7.00;99.90
19930;DHT22;10127;47.780;9.606;2024-03-22T05:57:49;7.10;99.90
19930;DHT22;10127;47.780;9.606;2024-03-22T06:00:14;7.10;99.90
19930;DHT22;10127;47.780;9.606;2024-03-22T06:02:40;7.20;99.90
19930;DHT22;10127;47.780;9.606;2024-03-22T06:05:06;7.10;99.90
19930;DHT22;10127;47.780;9.606;2024-03-22T06:07:32;7.10;99.90
19930;DHT22;10127;47.780;9.606;2024-03-22T06:10:06;7.00;99.90
19930;DHT22;10127;47.780;9.606;2024-03-22T06:12:31;7.10;99.90
19930;DHT22;10127;47.780;9.606;2024-03-22T06:14:57;7.20;99.90
19930;DHT22;10127;47.780;9.606;2024-03-22T06:17:23;7.40;99.90
19930;DHT22;10127;47.780;9.606;2024-03-22T06:19:48;7.70;99.90
19930;DHT22;10127;47.780;9.606;2024-03-22T06:22:14;7.80;99.90
19930;DHT22;10127;47.780;9.606;2024-03-22T06:24:39;7.70;99.90
19930;DHT22;10127;47.780;9.606;2024-03-22T06:27:05;7.70;99.90
19930;DHT22;10127;47.780;9.606;2024-03-22T06:29:31;7.60;99.90
19930;DHT22;10127;47.780;9.606;2024-03-22T06:31:57;7.70;99.90
19930;DHT22;10127;47.780;9.606;2024-03-22T06:34:22;7.90;99.90
19930;DHT22;10127;47.780;9.606;2024-03-22T06:36:48;7.90;99.90
19930;DHT22;10127;47.780;9.606;2024-03-22T06:39:13;7.80;99.90
19930;DHT22;10127;47.780;9.606;2024-03-22T06:41:40;8.00;99.90
19930;DHT22;10127;47.780;9.606;2024-03-22T06:44:05;8.20;99.90
19930;DHT22;10127;47.780;9.606;2024-03-22T06:46:31;8.30;99.90
19930;DHT22;10127;47.780;9.606;2024-03-22T06:48:57;8.30;99.90
19930;DHT22;10127;47.780;9.606;2024-03-22T06:51:23;8.50;99.90
19930;DHT22;10127;47.780;9.606;2024-03-22T06:53:49;8.60;99.90
19930;DHT22;10127;47.780;9.606;2024-03-22T06:56:15;8.60;99.90
19930;DHT22;10127;47.780;9.606;2024-03-22T06:58:40;8.80;99.90
19930;DHT22;10127;47.780;9.606;2024-03-22T07:01:06;8.60;99.90
19930;DHT22;10127;47.780;9.606;2024-03-22T07:03:32;8.80;99.90
19930;DHT22;10127;47.780;9.606;2024-03-22T07:05:58;8.60;99.90
19930;DHT22;10127;47.780;9.606;2024-03-22T07:08:24;8.70;99.90
19930;DHT22;10127;47.780;9.606;2024-03-22T07:10:51;8.80;99.90
19930;DHT22;10127;47.780;9.606;2024-03-22T07:13:18;8.90;99.90
19930;DHT22;10127;47.780;9.606;2024-03-22T07:15:47;9.00;99.90
19930;DHT22;10127;47.780;9.606;2024-03-22T07:18:15;9.00;99.90
19930;DHT22;10127;47.780;9.606;2024-03-22T07:20:41;9.10;99.90
19930;DHT22;10127;47.780;9.606;2024-03-22T07:23:08;9.10;99.90
19930;DHT22;10127;47.780;9.606;2024-03-22T07:25:33;9.30;99.90
19930;DHT22;10127;47.780;9.606;2024-03-22T07:27:59;9.40;99.90
19930;DHT22;10127;47.780;9.606;2024-03-22T07:30:24;9.60;99.90
19930;DHT22;10127;47.780;9.606;2024-03-22T07:32:50;9.70;99.90
19930;DHT22;10127;47.780;9.606;2024-03-22T07:35:16;9.80;99.90
19930;DHT22;10127;47.780;9.606;2024-03-22T07:37:42;9.80;99.90
19930;DHT22;10127;47.780;9.606;2024-03-22T07:40:07;9.90;99.90
19930;DHT22;10127;47.780;9.606;2024-03-22T07:42:33;9.90;99.90
19930;DHT22;10127;47.780;9.606;2024-03-22T07:44:59;10.10;99.90
19930;DHT22;10127;47.780;9.606;2024-03-22T07:47:24;10.10;99.90
19930;DHT22;10127;47.780;9.606;2024-03-22T07:49:51;10.40;99.90
19930;DHT22;10127;47.780;9.606;2024-03-22T07:52:16;10.40;99.90
19930;DHT22;10127;47.780;9.606;2024-03-22T07:54:42;10.40;99.90
19930;DHT22;10127;47.780;9.606;2024-03-22T07:57:08;10.40;99.90
19930;DHT22;10127;47.780;9.606;2024-03-22T07:59:33;10.60;99.90
19930;DHT22;10127;47.780;9.606;2024-03-22T08:02:01;10.80;99.90
19930;DHT22;10127;47.780;9.606;2024-03-22T08:04:28;10.90;99.90
19930;DHT22;10127;47.780;9.606;2024-03-22T08:06:54;11.00;99.90
19930;DHT22;10127;47.780;9.606;2024-03-22T08:09:20;11.20;99.90
19930;DHT22;10127;47.780;9.606;2024-03-22T08:11:45;11.30;99.90
19930;DHT22;10127;47.780;9.606;2024-03-22T08:14:11;11.40;99.90
19930;DHT22;10127;47.780;9.606;2024-03-22T08:16:37;11.50;99.90
19930;DHT22;10127;47.780;9.606;2024-03-22T08:19:02;11.60;99.90
19930;DHT22;10127;47.780;9.606;2024-03-22T08:21:28;11.70;99.90
19930;DHT22;10127;47.780;9.606;2024-03-22T08:23:54;11.50;99.90
19930;DHT22;10127;47.780;9.606;2024-03-22T08:26:20;11.60;99.90
19930;DHT22;10127;47.780;9.606;2024-03-22T08:28:46;11.60;99.90
19930;DHT22;10127;47.780;9.606;2024-03-22T08:31:12;11.80;99.90
19930;DHT22;10127;47.780;9.606;2024-03-22T08:33:38;11.90;99.90
19930;DHT22;10127;47.780;9.606;2024-03-22T08:36:04;12.00;99.90
19930;DHT22;10127;47.780;9.606;2024-03-22T08:38:29;12.10;99.90
19930;DHT22;10127;47.780;9.606;2024-03-22T08:40:55;12.10;99.90
19930;DHT22;10127;47.780;9.606;2024-03-22T08:43:21;12.20;99.90
19930;DHT22;10127;47.780;9.606;2024-03-22T08:45:48;12.30;99.90
19930;DHT22;10127;47.780;9.606;2024-03-22T08:48:14;12.50;99.90
19930;DHT22;10127;47.780;9.606;2024-03-22T08:50:42;12.50;99.90
19930;DHT22;10127;47.780;9.606;2024-03-22T08:53:08;12.60;99.90
19930;DHT22;10127;47.780;9.606;2024-03-22T08:55:33;12.70;99.90
19930;DHT22;10127;47.780;9.606;2024-03-22T08:57:59;12.80;99.90
19930;DHT22;10127;47.780;9.606;2024-03-22T09:00:25;12.90;99.90
19930;DHT22;10127;47.780;9.606;2024-03-22T09:02:50;13.00;99.90
19930;DHT22;10127;47.780;9.606;2024-03-22T09:05:16;13.10;99.90
19930;DHT22;10127;47.780;9.606;2024-03-22T09:07:41;13.10;99.90
19930;DHT22;10127;47.780;9.606;2024-03-22T09:10:07;13.20;99.90
19930;DHT22;10127;47.780;9.606;2024-03-22T09:12:35;13.40;99.90
19930;DHT22;10127;47.780;9.606;2024-03-22T09:15:01;13.40;99.90
19930;DHT22;10127;47.780;9.606;2024-03-22T09:17:27;13.50;99.90
19930;DHT22;10127;47.780;9.606;2024-03-22T09:19:52;13.60;99.90
19930;DHT22;10127;47.780;9.606;2024-03-22T09:22:18;13.70;99.90
19930;DHT22;10127;47.780;9.606;2024-03-22T09:24:44;13.70;99.90
19930;DHT22;10127;47.780;9.606;2024-03-22T09:27:09;13.70;99.90
19930;DHT22;10127;47.780;9.606;2024-03-22T09:29:36;13.70;99.90
19930;DHT22;10127;47.780;9.606;2024-03-22T09:32:02;13.80;99.90
19930;DHT22;10127;47.780;9.606;2024-03-22T09:34:28;13.80;99.90
19930;DHT22;10127;47.780;9.606;2024-03-22T09:36:55;13.90;99.90
19930;DHT22;10127;47.780;9.606;2024-03-22T09:39:21;13.80;99.90
19930;DHT22;10127;47.780;9.606;2024-03-22T09:41:47;13.80;99.90
19930;DHT22;10127;47.780;9.606;2024-03-22T09:44:14;13.80;99.90
19930;DHT22;10127;47.780;9.606;2024-03-22T09:46:43;13.90;99.90
19930;DHT22;10127;47.780;9.606;2024-03-22T09:49:12;14.00;99.90
19930;DHT22;10127;47.780;9.606;2024-03-22T09:51:43;14.10;99.90
19930;DHT22;10127;47.780;9.606;2024-03-22T09:54:11;14.20;99.90
19930;DHT22;10127;47.780;9.606;2024-03-22T09:56:40;14.30;99.90
19930;DHT22;10127;47.780;9.606;2024-03-22T09:59:07;14.40;99.90
19930;DHT22;10127;47.780;9.606;2024-03-22T10:01:36;14.40;99.90
19930;DHT22;10127;47.780;9.606;2024-03-22T10:04:02;14.50;99.90
19930;DHT22;10127;47.780;9.606;2024-03-22T10:06:29;14.60;99.90
19930;DHT22;10127;47.780;9.606;2024-03-22T10:08:58;14.60;99.90
19930;DHT22;10127;47.780;9.606;2024-03-22T10:11:29;14.70;99.90
19930;DHT22;10127;47.780;9.606;2024-03-22T10:13:54;14.80;99.90
19930;DHT22;10127;47.780;9.606;2024-03-22T10:16:22;14.90;99.90
19930;DHT22;10127;47.780;9.606;2024-03-22T10:18:48;15.00;99.90
19930;DHT22;10127;47.780;9.606;2024-03-22T10:21:17;15.10;99.90
19930;DHT22;10127;47.780;9.606;2024-03-22T10:23:47;15.10;99.90
19930;DHT22;10127;47.780;9.606;2024-03-22T10:26:14;15.20;99.90
19930;DHT22;10127;47.780;9.606;2024-03-22T10:28:46;15.30;99.90
19930;DHT22;10127;47.780;9.606;2024-03-22T10:31:13;15.40;99.90
19930;DHT22;10127;47.780;9.606;2024-03-22T10:33:40;15.40;99.90
19930;DHT22;10127;47.780;9.606;2024-03-22T10:36:07;15.50;99.90
19930;DHT22;10127;47.780;9.606;2024-03-22T10:38:35;15.60;99.90
19930;DHT22;10127;47.780;9.606;2024-03-22T10:41:01;15.70;99.90
19930;DHT22;10127;47.780;9.606;2024-03-22T10:43:27;15.70;99.90
19930;DHT22;10127;47.780;9.606;2024-03-22T10:45:56;15.70;99.90
19930;DHT22;10127;47.780;9.606;2024-03-22T10:48:31;15.70;99.90
19930;DHT22;10127;47.780;9.606;2024-03-22T10:51:01;15.80;99.90
19930;DHT22;10127;47.780;9.606;2024-03-22T10:53:28;15.90;99.90
19930;DHT22;10127;47.780;9.606;2024-03-22T10:55:57;15.90;99.90
19930;DHT22;10127;47.780;9.606;2024-03-22T10:58:25;16.00;99.90
19930;DHT22;10127;47.780;9.606;2024-03-22T11:00:58;16.00;99.90
19930;DHT22;10127;47.780;9.606;2024-03-22T11:03:26;16.10;99.90
19930;DHT22;10127;47.780;9.606;2024-03-22T11:05:55;16.20;99.90
19930;DHT22;10127;47.780;9.606;2024-03-22T11:08:29;16.40;99.90
19930;DHT22;10127;47.780;9.606;2024-03-22T11:10:56;16.40;99.90
19930;DHT22;10127;47.780;9.606;2024-03-22T11:13:22;16.40;99.90
19930;DHT22;10127;47.780;9.606;2024-03-22T11:15:51;16.60;99.90
19930;DHT22;10127;47.780;9.606;2024-03-22T11:18:18;16.80;99.90
19930;DHT22;10127;47.780;9.606;2024-03-22T11:20:44;16.90;99.90
19930;DHT22;10127;47.780;9.606;2024-03-22T11:23:12;17.00;99.90
19930;DHT22;10127;47.780;9.606;2024-03-22T11:25:38;17.00;99.90
19930;DHT22;10127;47.780;9.606;2024-03-22T11:28:04;17.20;99.90
19930;DHT22;10127;47.780;9.606;2024-03-22T11:30:32;17.20;99.90
19930;DHT22;10127;47.780;9.606;2024-03-22T11:33:01;17.20;99.90
19930;DHT22;10127;47.780;9.606;2024-03-22T11:35:34;17.10;99.90
19930;DHT22;10127;47.780;9.606;2024-03-22T11:38:00;17.00;99.90
19930;DHT22;10127;47.780;9.606;2024-03-22T11:40:32;16.90;99.90
19930;DHT22;10127;47.780;9.606;2024-03-22T11:42:59;16.90;99.90
19930;DHT22;10127;47.780;9.606;2024-03-22T11:45:26;17.10;99.90
19930;DHT22;10127;47.780;9.606;2024-03-22T11:48:02;17.00;99.90
19930;DHT22;10127;47.780;9.606;2024-03-22T11:50:28;17.20;99.90
19930;DHT22;10127;47.780;9.606;2024-03-22T11:53:01;17.00;99.90
19930;DHT22;10127;47.780;9.606;2024-03-22T11:55:27;17.10;99.90
19930;DHT22;10127;47.780;9.606;2024-03-22T11:57:53;17.20;99.90
19930;DHT22;10127;47.780;9.606;2024-03-22T12:00:19;17.50;99.90
19930;DHT22;10127;47.780;9.606;2024-03-22T12:02:45;17.50;99.90
19930;DHT22;10127;47.780;9.606;2024-03-22T12:05:11;17.60;99.90
19930;DHT22;10127;47.780;9.606;2024-03-22T12:07:37;17.80;99.90
19930;DHT22;10127;47.780;9.606;2024-03-22T12:10:03;18.00;99.90
19930;DHT22;10127;47.780;9.606;2024-03-22T12:12:30;18.00;99.90
19930;DHT22;10127;47.780;9.606;2024-03-22T12:14:55;18.00;99.90
19930;DHT22;10127;47.780;9.606;2024-03-22T12:17:21;17.80;99.90
19930;DHT22;10127;47.780;9.606;2024-03-22T12:19:47;17.90;99.90
19930;DHT22;10127;47.780;9.606;2024-03-22T12:22:13;17.90;99.90
19930;DHT22;10127;47.780;9.606;2024-03-22T12:24:38;17.90;99.90
19930;DHT22;10127;47.780;9.606;2024-03-22T12:27:04;17.80;99.90
19930;DHT22;10127;47.780;9.606;2024-03-22T12:29:32;17.80;99.90
19930;DHT22;10127;47.780;9.606;2024-03-22T12:31:59;17.80;99.90
19930;DHT22;10127;47.780;9.606;2024-03-22T12:34:27;17.80;99.90
19930;DHT22;10127;47.780;9.606;2024-03-22T12:36:53;17.80;99.90
19930;DHT22;10127;47.780;9.606;2024-03-22T12:39:18;18.00;99.90
19930;DHT22;10127;47.780;9.606;2024-03-22T12:41:44;17.90;99.90
19930;DHT22;10127;47.780;9.606;2024-03-22T12:44:10;17.90;99.90
19930;DHT22;10127;47.780;9.606;2024-03-22T12:46:35;18.00;99.90
19930;DHT22;10127;47.780;9.606;2024-03-22T12:49:01;18.00;99.90
19930;DHT22;10127;47.780;9.606;2024-03-22T12:51:26;18.00;99.90
19930;DHT22;10127;47.780;9.606;2024-03-22T12:53:55;17.90;99.90
19930;DHT22;10127;47.780;9.606;2024-03-22T12:56:21;17.70;99.90
19930;DHT22;10127;47.780;9.606;2024-03-22T12:58:47;18.10;99.90
19930;DHT22;10127;47.780;9.606;2024-03-22T13:01:12;18.40;99.90
19930;DHT22;10127;47.780;9.606;2024-03-22T13:03:38;18.50;99.90
19930;DHT22;10127;47.780;9.606;2024-03-22T13:06:04;18.50;99.90
19930;DHT22;10127;47.780;9.606;2024-03-22T13:08:33;18.60;99.90
19930;DHT22;10127;47.780;9.606;2024-03-22T13:10:59;18.70;99.90
19930;DHT22;10127;47.780;9.606;2024-03-22T13:13:24;18.90;99.90
19930;DHT22;10127;47.780;9.606;2024-03-22T13:15:50;19.20;99.90
19930;DHT22;10127;47.780;9.606;2024-03-22T13:18:16;19.20;99.90
19930;DHT22;10127;47.780;9.606;2024-03-22T13:20:41;19.20;99.90
19930;DHT22;10127;47.780;9.606;2024-03-22T13:23:07;19.20;99.90
19930;DHT22;10127;47.780;9.606;2024-03-22T13:25:35;19.10;99.90
19930;DHT22;10127;47.780;9.606;2024-03-22T13:28:03;19.10;99.90
19930;DHT22;10127;47.780;9.606;2024-03-22T13:30:29;18.90;99.90
19930;DHT22;10127;47.780;9.606;2024-03-22T13:32:55;19.10;99.90
19930;DHT22;10127;47.780;9.606;2024-03-22T13:35:20;19.40;99.90
19930;DHT22;10127;47.780;9.606;2024-03-22T13:37:46;19.50;95.60
19930;DHT22;10127;47.780;9.606;2024-03-22T13:40:14;19.30;94.60
19930;DHT22;10127;47.780;9.606;2024-03-22T13:42:40;19.20;96.50
19930;DHT22;10127;47.780;9.606;2024-03-22T13:45:06;19.30;94.80
19930;DHT22;10127;47.780;9.606;2024-03-22T13:47:32;19.40;94.30
19930;DHT22;10127;47.780;9.606;2024-03-22T13:49:58;19.30;93.30
19930;DHT22;10127;47.780;9.606;2024-03-22T13:52:23;19.40;88.60
19930;DHT22;10127;47.780;9.606;2024-03-22T13:54:49;19.20;88.20
19930;DHT22;10127;47.780;9.606;2024-03-22T13:57:17;19.40;88.40
19930;DHT22;10127;47.780;9.606;2024-03-22T13:59:43;19.60;88.20
19930;DHT22;10127;47.780;9.606;2024-03-22T14:02:09;19.80;86.30
19930;DHT22;10127;47.780;9.606;2024-03-22T14:04:35;20.10;82.60
19930;DHT22;10127;47.780;9.606;2024-03-22T14:07:01;20.20;83.60
19930;DHT22;10127;47.780;9.606;2024-03-22T14:09:31;20.30;83.60
19930;DHT22;10127;47.780;9.606;2024-03-22T14:11:56;20.40;81.60
19930;DHT22;10127;47.780;9.606;2024-03-22T14:14:22;20.50;80.90
19930;DHT22;10127;47.780;9.606;2024-03-22T14:16:49;20.90;80.90
19930;DHT22;10127;47.780;9.606;2024-03-22T14:19:14;21.10;75.60
19930;DHT22;10127;47.780;9.606;2024-03-22T14:21:41;21.30;77.20
19930;DHT22;10127;47.780;9.606;2024-03-22T14:24:07;21.40;76.10
19930;DHT22;10127;47.780;9.606;2024-03-22T14:26:33;21.30;76.80
19930;DHT22;10127;47.780;9.606;2024-03-22T14:28:58;21.40;78.10
19930;DHT22;10127;47.780;9.606;2024-03-22T14:31:24;21.20;73.00
19930;DHT22;10127;47.780;9.606;2024-03-22T14:33:49;21.20;74.20
19930;DHT22;10127;47.780;9.606;2024-03-22T14:36:15;21.10;74.20
19930;DHT22;10127;47.780;9.606;2024-03-22T14:38:41;21.20;72.70
19930;DHT22;10127;47.780;9.606;2024-03-22T14:41:07;21.20;72.20
19930;DHT22;10127;47.780;9.606;2024-03-22T14:43:32;20.70;72.10
19930;DHT22;10127;47.780;9.606;2024-03-22T14:46:02;20.60;74.80
19930;DHT22;10127;47.780;9.606;2024-03-22T14:48:28;20.60;74.30
19930;DHT22;10127;47.780;9.606;2024-03-22T14:50:54;20.50;75.70
19930;DHT22;10127;47.780;9.606;2024-03-22T14:53:20;20.40;71.20
19930;DHT22;10127;47.780;9.606;2024-03-22T14:56:02;20.30;69.90
19930;DHT22;10127;47.780;9.606;2024-03-22T14:58:34;20.40;73.40
19930;DHT22;10127;47.780;9.606;2024-03-22T15:01:02;20.30;73.00
19930;DHT22;10127;47.780;9.606;2024-03-22T15:03:27;20.30;73.10
19930;DHT22;10127;47.780;9.606;2024-03-22T15:05:54;20.20;74.90
19930;DHT22;10127;47.780;9.606;2024-03-22T15:08:21;20.10;76.30
19930;DHT22;10127;47.780;9.606;2024-03-22T15:10:46;20.10;75.40
19930;DHT22;10127;47.780;9.606;2024-03-22T15:13:13;20.10;71.60
19930;DHT22;10127;47.780;9.606;2024-03-22T15:15:39;20.10;71.90
19930;DHT22;10127;47.780;9.606;2024-03-22T15:18:06;20.10;75.60
19930;DHT22;10127;47.780;9.606;2024-03-22T15:20:31;20.10;74.70
19930;DHT22;10127;47.780;9.606;2024-03-22T15:22:58;20.00;76.10
19930;DHT22;10127;47.780;9.606;2024-03-22T15:25:23;20.00;76.90
19930;DHT22;10127;47.780;9.606;2024-03-22T15:27:49;20.40;76.00
19930;DHT22;10127;47.780;9.606;2024-03-22T15:30:15;20.60;73.60
19930;DHT22;10127;47.780;9.606;2024-03-22T15:32:41;20.90;70.00